Time;durP1;ratioP1;P1;durP2;ratioP2;P2;SDS_P1;SDS_P2;PMS_P1;PMS_P2;Temp;Humidity;BMP_temperature;BMP_pressure;BME280_temperature;BME280_humidity;BME280_pressure;Samples;Min_cycle;Max_cycle;Signal;HPM_P1;HPM_P2
2022/01/25 00:10:26;;;;;;;59.77;36.07;;;4.70;99.90;;;;;;6144079;23;20213;-80
2022/01/25 00:16:15;;;;;;;57.90;36.70;;;4.70;99.90;;;;;;6175885;23;20221;-79
2022/01/25 00:29:58;;;;;;;53.83;32.77;;;4.70;99.90;;;;;;6144196;23;20186;-79
2022/01/25 00:32:24;;;;;;;52.10;33.23;;;4.70;99.90;;;;;;6145145;23;20168;-78
2022/01/25 00:34:51;;;;;;;56.53;35.93;;;4.70;99.90;;;;;;6146242;23;20629;-79
2022/01/25 00:37:20;;;;;;;57.47;34.83;;;4.70;99.90;;;;;;6145182;23;20187;-80
2022/01/25 00:39:47;;;;;;;63.77;38.50;;;4.70;99.90;;;;;;6144808;23;20176;-81
2022/01/25 00:42:15;;;;;;;56.93;35.60;;;4.70;99.90;;;;;;6145661;23;20647;-81
2022/01/25 00:44:48;;;;;;;63.73;36.63;;;4.70;99.90;;;;;;6146112;23;20183;-81
2022/01/25 00:47:16;;;;;;;61.70;37.70;;;4.70;99.90;;;;;;6146605;23;20485;-81
2022/01/25 00:49:46;;;;;;;61.87;36.17;;;4.70;99.90;;;;;;6146674;23;20179;-81
2022/01/25 00:52:24;;;;;;;53.77;34.43;;;4.70;99.90;;;;;;6147237;23;20190;-80
2022/01/25 00:54:51;;;;;;;59.93;36.03;;;4.70;99.90;;;;;;6146989;23;20188;-80
2022/01/25 00:57:19;;;;;;;62.90;37.27;;;4.70;99.90;;;;;;6147276;23;20210;-80
2022/01/25 00:59:48;;;;;;;63.00;38.57;;;4.70;99.90;;;;;;6146295;23;20225;-80
2022/01/25 01:02:16;;;;;;;58.30;36.03;;;4.70;99.90;;;;;;6146699;23;20552;-81
2022/01/25 01:04:43;;;;;;;57.53;36.83;;;4.70;99.90;;;;;;6146940;23;20258;-80
2022/01/25 01:07:13;;;;;;;61.07;37.47;;;4.70;99.90;;;;;;6146992;23;20561;-79
2022/01/25 01:09:41;;;;;;;64.67;38.77;;;4.70;99.90;;;;;;6146155;23;20203;-80
2022/01/25 01:12:14;;;;;;;62.87;37.37;;;4.70;99.90;;;;;;6146250;23;20176;-80
2022/01/25 01:29:09;;;;;;;68.97;39.23;;;4.60;99.90;;;;;;6146145;23;20166;-80
2022/01/25 01:31:53;;;;;;;62.83;35.83;;;4.60;99.90;;;;;;6145359;23;20187;-79
2022/01/25 01:34:47;;;;;;;61.17;37.87;;;4.70;99.90;;;;;;6146351;23;20437;-80
2022/01/25 01:37:45;;;;;;;66.60;38.57;;;4.60;99.90;;;;;;6147652;23;20172;-80
2022/01/25 01:43:06;;;;;;;65.43;38.30;;;4.60;99.90;;;;;;6120993;23;20218;-80
2022/01/25 01:45:46;;;;;;;62.33;35.63;;;4.60;99.90;;;;;;6147689;23;20175;-81
2022/01/25 01:48:26;;;;;;;62.53;37.97;;;4.60;99.90;;;;;;6147758;23;20269;-81
2022/01/25 01:50:54;;;;;;;61.63;38.07;;;4.60;99.90;;;;;;6146543;23;20191;-80
2022/01/25 01:53:20;;;;;;;63.50;39.13;;;4.60;99.90;;;;;;6147611;23;20827;-81
2022/01/25 01:55:47;;;;;;;57.40;36.17;;;4.60;99.90;;;;;;6147567;23;20502;-81
2022/01/25 01:58:15;;;;;;;64.73;37.43;;;4.60;99.90;;;;;;6146517;23;20175;-81
2022/01/25 02:00:44;;;;;;;62.13;37.27;;;4.60;99.90;;;;;;6147256;23;20565;-81
2022/01/25 02:03:11;;;;;;;66.13;37.70;;;4.60;99.90;;;;;;6148166;23;20175;-81
2022/01/25 02:05:40;;;;;;;56.40;35.40;;;4.70;99.90;;;;;;6146760;23;20187;-80
2022/01/25 02:08:07;;;;;;;60.73;35.90;;;4.60;99.90;;;;;;6147686;23;20186;-81
2022/01/25 02:10:34;;;;;;;58.63;37.13;;;4.60;99.90;;;;;;6146410;23;20611;-80
2022/01/25 02:13:04;;;;;;;60.70;37.57;;;4.60;99.90;;;;;;6147175;23;20182;-82
2022/01/25 02:15:31;;;;;;;64.23;37.87;;;4.60;99.90;;;;;;6146403;23;20559;-79
2022/01/25 02:22:25;;;;;;;61.47;36.63;;;4.60;99.90;;;;;;6146329;23;20171;-80
2022/01/25 02:23:35;;;;;;;61.70;36.07;;;4.60;99.90;;;;;;6147315;23;20400;-78
2022/01/25 02:26:05;;;;;;;67.43;39.17;;;4.60;99.90;;;;;;6143986;23;20179;-79
2022/01/25 02:28:33;;;;;;;63.03;37.53;;;4.60;99.90;;;;;;6145971;23;20211;-80
2022/01/25 02:31:02;;;;;;;57.53;34.23;;;4.60;99.90;;;;;;6146692;23;20202;-80
2022/01/25 02:33:29;;;;;;;53.27;33.70;;;4.60;99.90;;;;;;6145607;23;20187;-79
2022/01/25 02:35:59;;;;;;;60.30;36.20;;;4.60;99.90;;;;;;6146287;23;20168;-79
2022/01/25 02:38:27;;;;;;;64.67;38.23;;;4.60;99.90;;;;;;6145993;23;20186;-80
2022/01/25 02:40:55;;;;;;;67.57;39.10;;;4.70;99.90;;;;;;6147212;23;20175;-79
2022/01/25 02:43:22;;;;;;;64.00;37.27;;;4.70;99.90;;;;;;6146631;23;20572;-81
2022/01/25 02:46:07;;;;;;;57.93;35.53;;;4.60;99.90;;;;;;6146533;23;20262;-79
2022/01/25 02:48:49;;;;;;;56.53;35.33;;;4.60;99.90;;;;;;6147143;23;20263;-80
2022/01/25 02:51:18;;;;;;;57.90;36.00;;;4.60;99.90;;;;;;6147212;23;20199;-81
2022/01/25 02:53:44;;;;;;;60.10;37.07;;;4.60;99.90;;;;;;6145378;23;20175;-78
2022/01/25 02:56:13;;;;;;;62.93;37.43;;;4.60;99.90;;;;;;6146895;23;20175;-80
2022/01/25 02:58:40;;;;;;;58.60;36.00;;;4.60;99.90;;;;;;6148592;23;20182;-80
2022/01/25 03:01:07;;;;;;;57.47;36.87;;;4.60;99.90;;;;;;6147878;23;20835;-78
2022/01/25 03:03:33;;;;;;;63.83;40.27;;;4.60;99.90;;;;;;6148516;23;20180;-79
2022/01/25 03:06:01;;;;;;;61.90;38.60;;;4.60;99.90;;;;;;6148126;23;20535;-78
2022/01/25 03:08:29;;;;;;;59.93;35.83;;;4.60;99.90;;;;;;6145773;23;20175;-79
2022/01/25 03:10:56;;;;;;;55.87;35.50;;;4.60;99.90;;;;;;6145574;23;20218;-80
2022/01/25 03:13:29;;;;;;;64.90;39.43;;;4.60;99.90;;;;;;6146388;23;20183;-80
2022/01/25 03:16:01;;;;;;;61.43;38.23;;;4.60;99.90;;;;;;6146394;23;20234;-81
2022/01/25 03:18:42;;;;;;;56.03;37.03;;;4.60;99.90;;;;;;6145804;23;20612;-81
2022/01/25 03:23:56;;;;;;;61.03;38.27;;;4.60;99.90;;;;;;6146798;23;20254;-80
2022/01/25 03:26:24;;;;;;;62.03;37.03;;;4.50;99.90;;;;;;6145129;23;20171;-78
2022/01/25 03:28:51;;;;;;;58.63;37.67;;;4.50;99.90;;;;;;6143780;23;20180;-78
2022/01/25 03:31:18;;;;;;;58.10;35.07;;;4.50;99.90;;;;;;6144703;23;20206;-79
2022/01/25 03:33:46;;;;;;;57.03;34.70;;;4.50;99.90;;;;;;6144393;23;20198;-78
2022/01/25 03:36:14;;;;;;;59.03;37.07;;;4.50;99.90;;;;;;6143981;23;20172;-80
2022/01/25 03:38:42;;;;;;;58.10;35.97;;;4.60;99.90;;;;;;6143808;23;20539;-80
2022/01/25 03:41:12;;;;;;;52.90;32.40;;;4.60;99.90;;;;;;6145060;23;20183;-80
2022/01/25 03:43:39;;;;;;;60.57;37.03;;;4.60;99.90;;;;;;6144565;23;20286;-77
2022/01/25 03:46:13;;;;;;;52.67;32.00;;;4.60;99.90;;;;;;6144955;23;20179;-78
2022/01/25 03:51:32;;;;;;;52.93;33.13;;;4.60;99.90;;;;;;6105591;23;20210;-78
2022/01/25 03:53:59;;;;;;;51.77;34.23;;;4.60;99.90;;;;;;6144337;23;20184;-79
2022/01/25 03:56:27;;;;;;;53.37;34.00;;;4.60;99.90;;;;;;6143819;23;20172;-79
2022/01/25 03:58:54;;;;;;;50.63;30.67;;;4.60;99.90;;;;;;6144793;23;20168;-79
2022/01/25 04:01:21;;;;;;;51.67;31.57;;;4.60;99.90;;;;;;6145626;23;20171;-82
2022/01/25 04:03:57;;;;;;;45.63;27.77;;;4.60;99.90;;;;;;6145135;23;20168;-78
2022/01/25 04:06:24;;;;;;;45.90;28.77;;;4.60;99.90;;;;;;6145313;23;20225;-80
2022/01/25 04:08:51;;;;;;;45.40;29.40;;;4.60;99.90;;;;;;6145556;23;20194;-81
2022/01/25 04:11:18;;;;;;;48.67;31.63;;;4.60;99.90;;;;;;6145545;23;20207;-80
2022/01/25 04:13:46;;;;;;;54.93;33.73;;;4.60;99.90;;;;;;6146165;23;20179;-80
2022/01/25 04:16:19;;;;;;;47.53;31.03;;;4.60;99.90;;;;;;6145723;23;20198;-80
2022/01/25 04:18:57;;;;;;;43.87;28.70;;;4.60;99.90;;;;;;6144759;23;20178;-81
2022/01/25 04:21:41;;;;;;;54.00;32.13;;;4.60;99.90;;;;;;6146546;23;20172;-81
2022/01/25 04:26:55;;;;;;;51.23;33.00;;;4.60;99.90;;;;;;6147334;23;20221;-80
2022/01/25 04:29:25;;;;;;;51.40;32.10;;;4.60;99.90;;;;;;6147524;23;20459;-80
2022/01/25 04:31:52;;;;;;;44.90;28.57;;;4.50;99.90;;;;;;6147210;23;20302;-79
2022/01/25 04:34:38;;;;;;;47.23;29.70;;;4.60;99.90;;;;;;6147125;23;20179;-79
2022/01/25 04:53:42;;;;;;;53.33;33.13;;;4.50;99.90;;;;;;6101299;23;20572;-78
2022/01/25 04:56:16;;;;;;;56.87;33.40;;;4.50;99.90;;;;;;6148022;23;20163;-81
2022/01/25 04:58:49;;;;;;;54.73;33.63;;;4.50;99.90;;;;;;6148315;23;20172;-79
2022/01/25 05:01:18;;;;;;;55.97;35.00;;;4.50;99.90;;;;;;6147714;23;20187;-78
2022/01/25 05:03:56;;;;;;;54.40;33.63;;;4.50;99.90;;;;;;6146458;23;20709;-79
2022/01/25 05:06:24;;;;;;;55.23;33.23;;;4.50;99.90;;;;;;6146937;23;20183;-80
2022/01/25 05:08:54;;;;;;;55.30;33.57;;;4.50;99.90;;;;;;6148594;23;20183;-80
2022/01/25 05:11:28;;;;;;;51.80;32.53;;;4.50;99.90;;;;;;6147333;23;20218;-81
2022/01/25 05:14:11;;;;;;;54.37;33.03;;;4.50;99.90;;;;;;6147463;23;20252;-79
2022/01/25 05:16:48;;;;;;;51.83;32.53;;;4.50;99.90;;;;;;6147195;23;20258;-80
2022/01/25 05:19:26;;;;;;;57.53;34.90;;;4.50;99.90;;;;;;6147598;23;20906;-80
2022/01/25 05:22:06;;;;;;;51.17;33.10;;;4.50;99.90;;;;;;6147139;23;20478;-79
2022/01/25 05:24:35;;;;;;;51.93;33.93;;;4.50;99.90;;;;;;6147595;23;20183;-78
2022/01/25 05:27:02;;;;;;;60.03;36.00;;;4.50;99.90;;;;;;6146836;23;20187;-81
2022/01/25 05:29:29;;;;;;;58.40;36.23;;;4.50;99.90;;;;;;6146256;23;20819;-79
2022/01/25 05:31:57;;;;;;;54.27;34.27;;;4.40;99.90;;;;;;6146834;23;20199;-78
2022/01/25 05:34:24;;;;;;;54.50;34.30;;;4.40;99.90;;;;;;6146707;23;20179;-78
2022/01/25 05:36:51;;;;;;;55.63;35.60;;;4.40;99.90;;;;;;6147235;23;20187;-79
2022/01/25 05:39:22;;;;;;;56.77;35.17;;;4.40;99.90;;;;;;6147293;23;20195;-79
2022/01/25 05:41:56;;;;;;;59.33;35.80;;;4.40;99.90;;;;;;6146780;23;20224;-79
2022/01/25 05:44:27;;;;;;;58.23;36.67;;;4.40;99.90;;;;;;6146007;23;20168;-78
2022/01/25 05:47:05;;;;;;;54.30;33.57;;;4.40;99.90;;;;;;6146169;23;20183;-80
2022/01/25 05:49:35;;;;;;;60.03;37.60;;;4.40;99.90;;;;;;6145716;23;20410;-80
2022/01/25 05:52:02;;;;;;;59.30;36.97;;;4.40;99.90;;;;;;6147653;23;20207;-81
2022/01/25 05:54:29;;;;;;;59.03;36.63;;;4.30;99.90;;;;;;6146775;23;20762;-79
2022/01/25 05:56:56;;;;;;;57.67;35.80;;;4.30;99.90;;;;;;6147010;23;20179;-80
2022/01/25 05:59:23;;;;;;;59.17;37.93;;;4.30;99.90;;;;;;6146882;23;20183;-80
2022/01/25 06:01:50;;;;;;;59.47;37.90;;;4.30;99.90;;;;;;6147411;23;20175;-80
2022/01/25 06:04:16;;;;;;;55.63;35.90;;;4.30;99.90;;;;;;6146931;23;20182;-80
2022/01/25 06:06:45;;;;;;;57.13;35.77;;;4.30;99.90;;;;;;6167112;23;20225;-80
2022/01/25 06:09:12;;;;;;;56.93;35.43;;;4.30;99.90;;;;;;6176397;23;20189;-80
2022/01/25 06:11:38;;;;;;;60.20;37.20;;;4.30;99.90;;;;;;6175095;23;20682;-80
2022/01/25 06:14:06;;;;;;;55.67;35.40;;;4.30;99.90;;;;;;6176228;23;20727;-81
2022/01/25 06:16:33;;;;;;;52.13;33.23;;;4.30;99.90;;;;;;6176534;23;20167;-81
2022/01/25 06:19:00;;;;;;;58.27;35.33;;;4.30;99.90;;;;;;6176797;23;20179;-81
2022/01/25 06:21:27;;;;;;;55.23;33.87;;;4.30;99.90;;;;;;6175917;23;20174;-80
2022/01/25 06:23:56;;;;;;;51.60;33.30;;;4.30;99.90;;;;;;6150209;23;20501;-80
2022/01/25 06:26:23;;;;;;;54.17;34.27;;;4.20;99.90;;;;;;6146516;23;20183;-79
2022/01/25 06:28:50;;;;;;;54.83;35.27;;;4.20;99.90;;;;;;6146901;23;20452;-80
2022/01/25 06:31:18;;;;;;;54.13;34.30;;;4.30;99.90;;;;;;6146088;23;20182;-81
2022/01/25 06:33:45;;;;;;;60.03;38.30;;;4.30;99.90;;;;;;6147094;23;20974;-81
2022/01/25 06:36:12;;;;;;;60.20;37.20;;;4.30;99.90;;;;;;6146615;23;20183;-80
2022/01/25 06:38:39;;;;;;;55.63;35.60;;;4.30;99.90;;;;;;6146379;23;20410;-81
2022/01/25 06:41:09;;;;;;;56.30;35.47;;;4.20;99.90;;;;;;6147767;23;20175;-81
2022/01/25 06:43:36;;;;;;;59.53;35.00;;;4.30;99.90;;;;;;6146019;23;20274;-79
2022/01/25 06:46:03;;;;;;;56.80;34.17;;;4.30;99.90;;;;;;6146826;23;20581;-80
2022/01/25 06:48:31;;;;;;;55.13;35.73;;;4.20;99.90;;;;;;6146482;23;20203;-80
2022/01/25 06:50:59;;;;;;;58.17;35.03;;;4.30;99.90;;;;;;6146934;23;20183;-79
2022/01/25 06:53:26;;;;;;;52.67;33.70;;;4.30;99.90;;;;;;6145229;23;20596;-80
2022/01/25 06:55:53;;;;;;;55.17;35.03;;;4.30;99.90;;;;;;6145763;23;20172;-80
2022/01/25 06:58:22;;;;;;;55.13;34.53;;;4.20;99.90;;;;;;6146633;23;20548;-81
2022/01/25 07:00:49;;;;;;;54.10;35.33;;;4.30;99.90;;;;;;6146491;23;20206;-80
2022/01/25 07:03:16;;;;;;;54.73;34.67;;;4.30;99.90;;;;;;6146964;23;20175;-79
2022/01/25 07:05:42;;;;;;;53.60;33.73;;;4.20;99.90;;;;;;6146675;23;20207;-81
2022/01/25 07:08:09;;;;;;;54.37;32.93;;;4.20;99.90;;;;;;6146309;23;20835;-81
2022/01/25 07:10:36;;;;;;;56.07;34.57;;;4.20;99.90;;;;;;6145320;23;20172;-81
2022/01/25 07:13:03;;;;;;;54.77;35.43;;;4.20;99.90;;;;;;6145361;23;20210;-80
2022/01/25 07:15:31;;;;;;;54.70;34.90;;;4.20;99.90;;;;;;6146495;23;20172;-81
2022/01/25 07:17:58;;;;;;;59.33;36.23;;;4.20;99.90;;;;;;6146459;23;20186;-80
2022/01/25 07:20:25;;;;;;;55.97;34.60;;;4.20;99.90;;;;;;6145288;23;20179;-81
2022/01/25 07:22:52;;;;;;;55.53;35.73;;;4.20;99.90;;;;;;6146365;23;20479;-79
2022/01/25 07:25:21;;;;;;;51.07;32.77;;;4.20;99.90;;;;;;6145587;23;20572;-79
2022/01/25 07:27:48;;;;;;;53.50;34.47;;;4.20;99.90;;;;;;6146201;23;20234;-79
2022/01/25 07:30:15;;;;;;;52.07;32.77;;;4.20;99.90;;;;;;6146570;23;20186;-78
2022/01/25 07:32:43;;;;;;;47.50;31.27;;;4.20;99.90;;;;;;6146189;23;20207;-80
2022/01/25 07:35:10;;;;;;;50.90;33.80;;;4.20;99.90;;;;;;6145329;23;20194;-79
2022/01/25 07:37:37;;;;;;;50.33;30.87;;;4.20;99.90;;;;;;6145634;23;20171;-79
2022/01/25 07:40:05;;;;;;;49.40;31.40;;;4.20;99.90;;;;;;6106647;23;20175;-80
2022/01/25 07:42:35;;;;;;;48.33;31.27;;;4.20;99.90;;;;;;6144433;23;20198;-80
2022/01/25 07:45:07;;;;;;;52.70;32.53;;;4.20;99.90;;;;;;6144758;23;20179;-81
2022/01/25 07:47:34;;;;;;;51.83;32.73;;;4.20;99.90;;;;;;6146035;23;20171;-80
2022/01/25 07:50:02;;;;;;;47.47;30.97;;;4.20;99.90;;;;;;6146524;23;20175;-80
2022/01/25 07:52:29;;;;;;;49.53;32.13;;;4.20;99.90;;;;;;6146325;23;20464;-79
2022/01/25 07:54:58;;;;;;;49.90;33.47;;;4.20;99.90;;;;;;6127596;23;20179;-80
2022/01/25 07:57:24;;;;;;;48.67;30.90;;;4.20;99.90;;;;;;6147586;23;20228;-80
2022/01/25 07:59:52;;;;;;;48.40;30.27;;;4.20;99.90;;;;;;6148189;23;20186;-79
2022/01/25 08:02:20;;;;;;;45.03;28.60;;;4.20;99.90;;;;;;6144938;23;20183;-79
2022/01/25 08:04:47;;;;;;;47.10;30.20;;;4.20;99.90;;;;;;6147661;23;20183;-79
2022/01/25 08:07:15;;;;;;;49.07;31.23;;;4.20;99.90;;;;;;6147539;23;20596;-79
2022/01/25 08:09:42;;;;;;;46.57;28.90;;;4.20;99.90;;;;;;6145865;23;20406;-80
2022/01/25 08:12:12;;;;;;;52.67;31.93;;;4.20;99.90;;;;;;6146616;23;20199;-78
2022/01/25 08:14:41;;;;;;;48.87;30.77;;;4.20;99.90;;;;;;6146817;23;20266;-79
2022/01/25 08:17:08;;;;;;;48.47;30.07;;;4.20;99.90;;;;;;6146452;23;20190;-79
2022/01/25 08:19:35;;;;;;;50.90;31.87;;;4.20;99.90;;;;;;6146992;23;20183;-80
2022/01/25 08:22:02;;;;;;;46.43;29.57;;;4.20;99.90;;;;;;6147072;23;20194;-79
2022/01/25 08:24:30;;;;;;;52.30;31.27;;;4.20;99.90;;;;;;6145052;23;20183;-79
2022/01/25 08:26:57;;;;;;;48.83;30.43;;;4.20;99.90;;;;;;6144705;23;20179;-79
2022/01/25 08:29:24;;;;;;;47.73;29.73;;;4.20;99.90;;;;;;6146831;23;20770;-80
2022/01/25 08:31:50;;;;;;;50.67;30.83;;;4.20;99.90;;;;;;6146682;23;20179;-78
2022/01/25 08:34:18;;;;;;;52.33;31.27;;;4.20;99.90;;;;;;6146809;23;20183;-80
2022/01/25 08:36:45;;;;;;;50.40;30.63;;;4.20;99.90;;;;;;6148226;23;20190;-79
2022/01/25 08:39:12;;;;;;;49.83;29.97;;;4.20;99.90;;;;;;6147685;23;20167;-81
2022/01/25 08:41:40;;;;;;;48.73;30.30;;;4.30;99.90;;;;;;6148162;23;20174;-80
2022/01/25 08:44:07;;;;;;;48.43;30.30;;;4.30;99.90;;;;;;6147422;23;20171;-80
2022/01/25 08:46:35;;;;;;;49.73;30.10;;;4.30;99.90;;;;;;6146595;23;20175;-79
2022/01/25 08:49:01;;;;;;;50.10;29.93;;;4.30;99.90;;;;;;6148516;23;20735;-79
2022/01/25 08:51:28;;;;;;;45.27;27.90;;;4.30;99.90;;;;;;6144464;23;20874;-82
2022/01/25 08:53:55;;;;;;;44.87;28.73;;;4.20;99.90;;;;;;6148082;23;20210;-80
2022/01/25 08:56:22;;;;;;;45.77;30.33;;;4.30;99.90;;;;;;6147524;23;20750;-80
2022/01/25 08:58:51;;;;;;;46.47;29.50;;;4.30;99.90;;;;;;6146831;23;20195;-80
2022/01/25 09:01:18;;;;;;;51.27;31.17;;;4.30;99.90;;;;;;6146612;23;20496;-80
2022/01/25 09:03:45;;;;;;;43.67;28.93;;;4.30;99.90;;;;;;6146401;23;20739;-80
2022/01/25 09:06:11;;;;;;;50.93;32.17;;;4.30;99.90;;;;;;6145751;23;20218;-81
2022/01/25 09:08:38;;;;;;;50.80;31.90;;;4.30;99.90;;;;;;6146036;23;20184;-80
2022/01/25 09:11:06;;;;;;;48.83;30.00;;;4.30;99.90;;;;;;6146939;23;20199;-80
2022/01/25 09:13:34;;;;;;;48.70;29.20;;;4.40;99.90;;;;;;6145045;23;20210;-80
2022/01/25 09:16:02;;;;;;;45.30;28.53;;;4.40;99.90;;;;;;6145848;23;20187;-80
2022/01/25 09:18:30;;;;;;;48.50;28.77;;;4.40;99.90;;;;;;6146287;23;20231;-81
2022/01/25 09:20:57;;;;;;;44.50;28.43;;;4.40;99.90;;;;;;6148031;23;20176;-81
2022/01/25 09:23:24;;;;;;;47.73;29.47;;;4.40;99.90;;;;;;6147141;23;20552;-80
2022/01/25 09:25:51;;;;;;;43.07;27.73;;;4.40;99.90;;;;;;6148055;23;20175;-82
2022/01/25 09:28:18;;;;;;;49.90;31.33;;;4.40;99.90;;;;;;6148443;23;20194;-82
2022/01/25 09:30:45;;;;;;;44.53;28.67;;;4.40;99.90;;;;;;6148679;23;20188;-81
2022/01/25 09:33:15;;;;;;;43.23;28.60;;;4.40;99.90;;;;;;6148284;23;20195;-80
2022/01/25 09:35:42;;;;;;;42.30;28.10;;;4.50;99.90;;;;;;6145624;23;20175;-79
2022/01/25 09:38:10;;;;;;;42.50;28.07;;;4.50;99.90;;;;;;6146877;23;20175;-79
2022/01/25 09:40:37;;;;;;;43.60;27.53;;;4.50;99.90;;;;;;6145514;23;20488;-79
2022/01/25 09:43:06;;;;;;;42.40;26.50;;;4.50;99.90;;;;;;6146581;23;20180;-80
2022/01/25 09:45:35;;;;;;;43.60;27.30;;;4.50;99.90;;;;;;6146826;23;20172;-80
2022/01/25 09:48:02;;;;;;;45.23;27.83;;;4.60;99.90;;;;;;6146063;23;20160;-81
2022/01/25 09:50:30;;;;;;;46.13;26.60;;;4.50;99.90;;;;;;6145059;23;20523;-79
2022/01/25 09:52:59;;;;;;;42.77;27.27;;;4.60;99.90;;;;;;6145492;23;20202;-80
2022/01/25 09:55:27;;;;;;;45.13;29.30;;;4.60;99.90;;;;;;6145258;23;20910;-80
2022/01/25 09:57:54;;;;;;;46.60;28.47;;;4.60;99.90;;;;;;6145602;23;20564;-80
2022/01/25 10:00:23;;;;;;;49.17;30.87;;;4.50;99.90;;;;;;6145297;23;20438;-79
2022/01/25 10:02:58;;;;;;;50.93;31.30;;;4.60;99.90;;;;;;6142241;23;20175;-79
2022/01/25 10:05:30;;;;;;;49.37;31.27;;;4.50;99.90;;;;;;6142605;23;20317;-78
2022/01/25 10:08:05;;;;;;;54.60;31.27;;;4.50;99.90;;;;;;6146175;23;20214;-80
2022/01/25 10:10:34;;;;;;;50.17;30.10;;;4.60;99.90;;;;;;6144415;23;20194;-79
2022/01/25 10:13:09;;;;;;;51.37;31.17;;;4.60;99.90;;;;;;6145164;23;20195;-78
2022/01/25 10:15:36;;;;;;;46.70;29.77;;;4.60;99.90;;;;;;6145960;23;20221;-80
2022/01/25 10:18:05;;;;;;;50.53;29.90;;;4.60;99.90;;;;;;6145466;23;20187;-80
2022/01/25 10:20:33;;;;;;;48.67;29.47;;;4.60;99.90;;;;;;6144840;23;20214;-80
2022/01/25 10:23:05;;;;;;;47.17;29.53;;;4.60;99.90;;;;;;6145139;23;20192;-78
2022/01/25 10:25:36;;;;;;;46.33;30.13;;;4.60;99.90;;;;;;6145686;23;20179;-78
2022/01/25 10:28:10;;;;;;;45.87;30.13;;;4.60;99.90;;;;;;6146364;23;20178;-79
2022/01/25 10:30:42;;;;;;;46.77;29.10;;;4.70;99.90;;;;;;6144715;23;20596;-77
2022/01/25 10:33:39;;;;;;;46.33;28.80;;;4.70;99.90;;;;;;6144591;23;20198;-80
2022/01/25 10:36:14;;;;;;;44.23;26.87;;;4.70;99.90;;;;;;6078937;23;20211;-79
2022/01/25 10:38:44;;;;;;;42.60;27.60;;;4.70;99.90;;;;;;6144100;23;20167;-79
2022/01/25 10:41:13;;;;;;;48.03;29.27;;;4.70;99.90;;;;;;6145929;23;20182;-80
2022/01/25 10:43:42;;;;;;;45.80;30.40;;;4.80;99.90;;;;;;6145504;23;20171;-79
2022/01/25 10:46:15;;;;;;;44.43;29.40;;;4.80;99.90;;;;;;6144339;23;20179;-79
2022/01/25 10:48:45;;;;;;;46.20;29.60;;;4.80;99.90;;;;;;6144993;23;20201;-80
2022/01/25 10:51:14;;;;;;;43.23;27.17;;;4.70;99.90;;;;;;6144294;23;20176;-79
2022/01/25 10:53:42;;;;;;;50.00;29.73;;;4.70;99.90;;;;;;6144603;23;20198;-79
2022/01/25 10:56:10;;;;;;;47.87;30.87;;;4.70;99.90;;;;;;6144841;23;20172;-81
2022/01/25 10:58:39;;;;;;;41.83;27.27;;;4.70;99.90;;;;;;6144686;23;20179;-81
2022/01/25 11:01:06;;;;;;;46.13;27.00;;;4.70;99.90;;;;;;6145168;23;20931;-80
2022/01/25 11:03:35;;;;;;;44.03;27.50;;;4.70;99.90;;;;;;6145003;23;20172;-80
2022/01/25 11:06:14;;;;;;;42.93;26.13;;;4.70;99.90;;;;;;6144015;23;20210;-79
2022/01/25 11:08:44;;;;;;;50.00;29.80;;;4.70;99.90;;;;;;6145341;23;20539;-78
2022/01/25 11:11:21;;;;;;;45.97;27.67;;;4.80;99.90;;;;;;6145397;23;20167;-79
2022/01/25 11:13:49;;;;;;;50.07;29.93;;;4.80;99.90;;;;;;6141387;23;20187;-80
2022/01/25 11:16:17;;;;;;;48.40;30.60;;;4.80;99.90;;;;;;6144694;23;20494;-79
2022/01/25 11:18:43;;;;;;;50.53;29.77;;;4.80;99.90;;;;;;6159983;23;20213;-80
2022/01/25 11:21:12;;;;;;;43.40;27.87;;;4.80;99.90;;;;;;6202783;23;20563;-79
2022/01/25 11:23:41;;;;;;;49.47;28.13;;;4.80;99.90;;;;;;6179066;23;20195;-78
2022/01/25 11:26:10;;;;;;;49.50;28.90;;;4.80;99.90;;;;;;6174063;23;20190;-79
2022/01/25 11:28:39;;;;;;;48.17;28.50;;;4.80;99.90;;;;;;6172857;23;20186;-78
2022/01/25 11:31:11;;;;;;;48.83;29.97;;;4.80;99.90;;;;;;6174331;23;20183;-78
2022/01/25 11:33:44;;;;;;;49.10;27.33;;;4.80;99.90;;;;;;6172719;23;20198;-79
2022/01/25 11:36:11;;;;;;;47.83;28.03;;;4.80;99.90;;;;;;6173863;23;20286;-80
2022/01/25 11:38:42;;;;;;;51.63;29.97;;;4.80;99.90;;;;;;6173796;23;20186;-79
2022/01/25 11:41:12;;;;;;;47.60;27.93;;;4.90;99.90;;;;;;6173454;23;20185;-80
2022/01/25 11:43:42;;;;;;;42.40;26.37;;;4.80;99.90;;;;;;6173496;23;20194;-78
2022/01/25 11:46:09;;;;;;;43.03;28.23;;;4.90;99.90;;;;;;6173501;23;20185;-78
2022/01/25 11:48:44;;;;;;;50.07;27.57;;;4.90;99.90;;;;;;6172726;23;20210;-78
2022/01/25 11:51:16;;;;;;;50.13;28.40;;;4.90;99.90;;;;;;6174061;23;20331;-79
2022/01/25 11:53:45;;;;;;;46.03;26.33;;;4.90;99.90;;;;;;6173638;23;20213;-79
2022/01/25 11:56:14;;;;;;;42.33;25.23;;;4.90;99.90;;;;;;6173297;23;20571;-78
2022/01/25 11:58:42;;;;;;;42.37;27.40;;;4.90;99.90;;;;;;6173027;23;20587;-78
2022/01/25 12:01:18;;;;;;;42.90;26.37;;;5.00;99.90;;;;;;6173912;23;20905;-78
2022/01/25 12:03:47;;;;;;;47.63;27.03;;;5.00;99.90;;;;;;6173337;23;20642;-79
2022/01/25 12:06:19;;;;;;;40.10;25.37;;;5.00;99.90;;;;;;6173247;23;20477;-79
2022/01/25 12:09:07;;;;;;;44.43;26.23;;;5.00;99.90;;;;;;6173215;23;20174;-77
2022/01/25 12:11:42;;;;;;;40.37;25.17;;;4.90;99.90;;;;;;6173314;23;20182;-77
2022/01/25 12:14:18;;;;;;;43.00;25.90;;;4.90;99.90;;;;;;6173986;23;20229;-79
2022/01/25 12:16:48;;;;;;;43.00;27.03;;;4.90;99.90;;;;;;6172898;23;20174;-79
2022/01/25 12:19:17;;;;;;;40.17;25.60;;;4.90;99.90;;;;;;6172729;23;20663;-79
2022/01/25 12:22:14;;;;;;;48.00;28.37;;;5.00;99.90;;;;;;6173601;23;20202;-79
2022/01/25 12:24:53;;;;;;;50.10;27.83;;;5.00;99.90;;;;;;6172775;23;20175;-78
2022/01/25 12:27:34;;;;;;;45.57;27.47;;;5.00;99.90;;;;;;6172496;23;20182;-77
2022/01/25 12:30:06;;;;;;;43.97;27.13;;;5.00;99.90;;;;;;6172946;23;20201;-79
2022/01/25 12:32:36;;;;;;;43.60;26.67;;;5.00;99.90;;;;;;6173555;23;20182;-77
2022/01/25 12:35:10;;;;;;;49.30;28.03;;;5.00;99.90;;;;;;6172628;23;20745;-78
2022/01/25 12:37:58;;;;;;;43.17;25.87;;;5.00;99.90;;;;;;6171528;23;20187;-78
2022/01/25 12:40:47;;;;;;;43.87;26.37;;;5.00;99.90;;;;;;6173245;23;20457;-78
2022/01/25 12:43:19;;;;;;;46.73;27.33;;;5.00;99.90;;;;;;6171257;23;20193;-78
2022/01/25 12:45:54;;;;;;;45.73;28.80;;;5.10;99.90;;;;;;6173966;23;20506;-78
2022/01/25 12:48:24;;;;;;;48.87;27.77;;;5.10;99.90;;;;;;6172889;23;20538;-77
2022/01/25 12:50:55;;;;;;;51.90;29.40;;;5.10;99.90;;;;;;6173165;23;20183;-77
2022/01/25 12:53:24;;;;;;;54.93;30.33;;;5.10;99.90;;;;;;6173850;23;20480;-78
2022/01/25 12:55:54;;;;;;;48.33;30.07;;;5.10;99.90;;;;;;6175517;23;20284;-77
2022/01/25 12:58:24;;;;;;;50.60;31.30;;;5.00;99.90;;;;;;6172111;23;20198;-78
2022/01/25 13:00:54;;;;;;;58.47;29.67;;;5.00;99.90;;;;;;6173716;23;20174;-78
2022/01/25 13:03:26;;;;;;;52.77;31.40;;;5.00;99.90;;;;;;6171688;23;20210;-77
2022/01/25 13:05:56;;;;;;;54.53;31.20;;;5.00;99.90;;;;;;6174045;23;20249;-77
2022/01/25 13:08:32;;;;;;;54.93;31.23;;;5.00;99.90;;;;;;6171469;23;20449;-78
2022/01/25 13:11:46;;;;;;;53.13;31.03;;;5.00;99.90;;;;;;6175079;23;20190;-78
2022/01/25 13:17:15;;;;;;;56.47;32.40;;;5.00;99.90;;;;;;5119819;27;20282;-78
2022/01/25 13:19:45;;;;;;;54.10;31.63;;;5.00;99.90;;;;;;5099552;28;20200;-78
2022/01/25 13:22:16;;;;;;;55.63;33.23;;;5.00;99.90;;;;;;5079845;28;20702;-78
2022/01/25 13:24:54;;;;;;;50.47;29.97;;;5.00;99.90;;;;;;5068248;28;20248;-78
2022/01/25 13:27:21;;;;;;;50.37;29.00;;;5.10;99.90;;;;;;5068694;28;20299;-79
2022/01/25 13:32:39;;;;;;;53.63;31.77;;;5.10;99.90;;;;;;5079253;28;20219;-77
2022/01/25 13:35:18;;;;;;;51.20;31.57;;;5.10;99.90;;;;;;5079187;28;20204;-78
2022/01/25 13:37:47;;;;;;;47.50;28.97;;;5.00;99.90;;;;;;5075758;28;20274;-78
2022/01/25 13:40:15;;;;;;;53.00;32.17;;;5.00;99.90;;;;;;5059106;28;20206;-78
2022/01/25 13:42:55;;;;;;;53.37;33.43;;;5.00;99.90;;;;;;5059410;28;20225;-78
2022/01/25 13:48:11;;;;;;;59.20;34.73;;;5.00;99.90;;;;;;5079003;28;20203;-78
2022/01/25 13:50:39;;;;;;;55.67;32.80;;;5.00;99.90;;;;;;5075318;28;20205;-78
2022/01/25 13:53:07;;;;;;;57.40;33.93;;;5.00;99.90;;;;;;5058807;28;20611;-79
2022/01/25 13:55:35;;;;;;;50.03;31.00;;;5.00;99.90;;;;;;5058542;28;20240;-79
2022/01/25 13:58:02;;;;;;;53.47;31.93;;;5.00;99.90;;;;;;5059354;28;20221;-78
2022/01/25 14:00:29;;;;;;;52.07;30.20;;;5.00;99.90;;;;;;5076533;28;20211;-78
2022/01/25 14:02:59;;;;;;;55.77;32.27;;;5.00;99.90;;;;;;5068263;28;20220;-78
2022/01/25 14:05:35;;;;;;;50.23;31.23;;;5.00;99.90;;;;;;5058735;28;20213;-78
2022/01/25 14:08:02;;;;;;;54.53;32.37;;;5.00;99.90;;;;;;5060553;28;20209;-79